Time;durP1;ratioP1;P1;durP2;ratioP2;P2;SDS_P1;SDS_P2;PMS_P1;PMS_P2;Temp;Humidity;BMP_temperature;BMP_pressure;BME280_temperature;BME280_humidity;BME280_pressure;Samples;Min_cycle;Max_cycle;Signal;HPM_P1;HPM_P2
2022/09/02 00:00:59;;;;;;;2.50;1.40;;;15.70;99.90;;;;;;5053300;28;20048;-82
2022/09/02 00:03:34;;;;;;;1.55;0.90;;;15.70;99.90;;;;;;5053183;28;20045;-82
2022/09/02 00:06:01;;;;;;;2.85;1.10;;;15.60;99.90;;;;;;5053624;28;20508;-83
2022/09/02 00:08:27;;;;;;;3.45;1.23;;;15.60;99.90;;;;;;5053283;28;20149;-83
2022/09/02 00:10:53;;;;;;;3.78;1.15;;;15.50;99.90;;;;;;5036335;28;20095;-82
2022/09/02 00:13:20;;;;;;;1.30;1.13;;;15.50;99.90;;;;;;5036375;28;20091;-82
2022/09/02 00:15:47;;;;;;;1.55;1.05;;;15.50;99.90;;;;;;5036521;28;20045;-83
2022/09/02 00:18:13;;;;;;;1.52;0.98;;;15.50;99.90;;;;;;5052886;28;20052;-83
2022/09/02 00:20:42;;;;;;;2.58;1.15;;;15.50;99.90;;;;;;5052882;28;20044;-83
2022/09/02 00:23:08;;;;;;;1.92;1.13;;;15.40;99.90;;;;;;5052537;28;20037;-83
2022/09/02 00:25:34;;;;;;;;;;;15.40;99.90;;;;;;5053420;28;20120;-83
2022/09/02 00:28:00;;;;;;;2.63;1.10;;;15.30;99.90;;;;;;5052961;28;19923;-83
2022/09/02 00:30:26;;;;;;;1.52;0.90;;;15.30;99.90;;;;;;5036327;28;20037;-82
2022/09/02 00:32:53;;;;;;;2.97;1.20;;;15.30;99.90;;;;;;5053070;28;20590;-83
2022/09/02 00:35:19;;;;;;;3.70;1.20;;;15.20;99.90;;;;;;5052434;28;20045;-83
2022/09/02 00:37:44;;;;;;;3.13;1.20;;;15.20;99.90;;;;;;5035942;28;20147;-83
2022/09/02 00:40:11;;;;;;;2.75;1.20;;;15.20;99.90;;;;;;5052762;28;20087;-83
2022/09/02 00:42:37;;;;;;;1.80;1.00;;;15.10;99.90;;;;;;5035910;28;20044;-82
2022/09/02 00:45:05;;;;;;;1.60;1.00;;;15.10;99.90;;;;;;5035884;28;20048;-83
2022/09/02 00:47:32;;;;;;;2.85;1.15;;;15.10;99.90;;;;;;5052608;28;20102;-83
2022/09/02 00:49:58;;;;;;;3.00;1.10;;;15.00;99.90;;;;;;5034810;28;20124;-83
2022/09/02 00:52:29;;;;;;;1.40;1.00;;;15.00;99.90;;;;;;5035916;28;20076;-83
2022/09/02 00:55:01;;;;;;;3.00;0.98;;;14.90;99.90;;;;;;5035447;28;20061;-83
2022/09/02 00:57:35;;;;;;;2.38;1.02;;;14.90;99.90;;;;;;5052213;28;20061;-82
2022/09/02 01:00:12;;;;;;;1.83;0.82;;;14.80;99.90;;;;;;5052582;28;20091;-83
2022/09/02 01:02:40;;;;;;;2.78;1.00;;;14.80;99.90;;;;;;5052180;28;20045;-82
2022/09/02 01:05:15;;;;;;;1.60;1.10;;;14.70;99.90;;;;;;5051992;28;20040;-83
2022/09/02 01:07:43;;;;;;;1.85;1.30;;;14.70;99.90;;;;;;5052162;28;20174;-82
2022/09/02 01:10:14;;;;;;;3.33;1.20;;;14.70;99.90;;;;;;5051929;28;20150;-82
2022/09/02 01:12:39;;;;;;;3.45;1.50;;;14.60;99.90;;;;;;5052305;28;20558;-82
2022/09/02 01:15:09;;;;;;;1.50;1.10;;;14.60;99.90;;;;;;5035288;28;20045;-83
2022/09/02 01:17:38;;;;;;;1.92;1.30;;;14.60;99.90;;;;;;5035294;28;20128;-83
2022/09/02 01:20:13;;;;;;;3.80;1.90;;;14.50;99.90;;;;;;5035625;28;20197;-83
2022/09/02 01:22:44;;;;;;;4.75;1.38;;;14.50;99.90;;;;;;5051816;28;20219;-82
2022/09/02 01:25:18;;;;;;;4.53;1.83;;;14.50;99.90;;;;;;5051768;28;20729;-82
2022/09/02 01:27:44;;;;;;;3.55;1.63;;;14.50;99.90;;;;;;5051815;28;20128;-83
2022/09/02 01:30:13;;;;;;;3.63;1.50;;;14.40;99.90;;;;;;5035106;28;20049;-83
2022/09/02 01:32:39;;;;;;;2.83;1.60;;;14.40;99.90;;;;;;5052004;28;20056;-82
2022/09/02 01:35:05;;;;;;;3.75;1.73;;;14.40;99.90;;;;;;5035079;28;20045;-82
2022/09/02 01:37:31;;;;;;;5.53;1.70;;;14.30;99.90;;;;;;5051484;28;20523;-83
2022/09/02 01:39:57;;;;;;;2.35;1.90;;;14.30;99.90;;;;;;5051784;28;20059;-83
2022/09/02 01:42:24;;;;;;;2.05;1.75;;;14.30;99.90;;;;;;5034667;28;20044;-83
2022/09/02 01:44:50;;;;;;;3.95;1.50;;;14.20;99.90;;;;;;5051361;28;20162;-83
2022/09/02 01:47:22;;;;;;;3.22;1.38;;;14.20;99.90;;;;;;5051330;28;20048;-82
2022/09/02 01:49:49;;;;;;;2.72;1.50;;;14.20;99.90;;;;;;5051342;28;20040;-82
2022/09/02 01:52:15;;;;;;;2.08;1.30;;;14.10;99.90;;;;;;5051138;28;20040;-82
2022/09/02 01:54:41;;;;;;;4.18;1.45;;;14.10;99.90;;;;;;5051320;28;20084;-82
2022/09/02 01:57:07;;;;;;;2.45;1.40;;;14.10;99.90;;;;;;5050912;28;20081;-82
2022/09/02 01:59:33;;;;;;;4.70;1.58;;;14.10;99.90;;;;;;5051393;28;20400;-83
2022/09/02 02:01:59;;;;;;;1.90;1.40;;;14.10;99.90;;;;;;5051151;28;20120;-82
2022/09/02 02:04:25;;;;;;;2.90;1.30;;;14.10;99.90;;;;;;5034262;28;20282;-82
2022/09/02 02:06:51;;;;;;;;;;;14.00;99.90;;;;;;5051266;28;20298;-82
2022/09/02 02:09:17;;;;;;;2.70;1.30;;;14.00;99.90;;;;;;5050708;28;19921;-82
2022/09/02 02:11:44;;;;;;;;;;;14.00;99.90;;;;;;5051390;28;20048;-82
2022/09/02 02:14:10;;;;;;;3.08;1.10;;;14.00;99.90;;;;;;5050631;28;19923;-82
2022/09/02 02:16:35;;;;;;;3.75;1.48;;;14.00;99.90;;;;;;5050836;28;20041;-83
2022/09/02 02:19:02;;;;;;;2.42;1.15;;;14.00;99.90;;;;;;5050761;28;20040;-82
2022/09/02 02:21:28;;;;;;;2.60;1.00;;;14.00;99.90;;;;;;5050681;28;20128;-83
2022/09/02 02:23:54;;;;;;;2.80;1.15;;;14.00;99.90;;;;;;5050785;28;20083;-82
2022/09/02 02:26:19;;;;;;;2.28;1.30;;;14.00;99.90;;;;;;5050494;28;20048;-82
2022/09/02 02:28:45;;;;;;;3.47;1.30;;;13.90;99.90;;;;;;5050663;28;20048;-82
2022/09/02 02:31:11;;;;;;;2.22;1.35;;;13.90;99.90;;;;;;5050688;28;20056;-82
2022/09/02 02:33:37;;;;;;;2.60;1.38;;;13.80;99.90;;;;;;5050968;28;20048;-82
2022/09/02 02:36:05;;;;;;;2.78;1.20;;;13.80;99.90;;;;;;5050457;28;20115;-83
2022/09/02 02:38:32;;;;;;;1.50;1.10;;;13.80;99.90;;;;;;5050485;28;20051;-83
2022/09/02 02:40:58;;;;;;;3.72;1.30;;;13.80;99.90;;;;;;5050704;28;20489;-83
2022/09/02 02:43:24;;;;;;;2.25;1.30;;;13.80;99.90;;;;;;5050354;28;20037;-82
2022/09/02 02:45:50;;;;;;;;;;;13.70;99.90;;;;;;5034390;28;20081;-83
2022/09/02 02:48:16;;;;;;;2.60;1.40;;;13.70;99.90;;;;;;5050407;28;20387;-82
2022/09/02 02:50:42;;;;;;;2.78;1.42;;;13.70;99.90;;;;;;5034410;28;20053;-82
2022/09/02 02:53:08;;;;;;;4.03;1.30;;;13.60;99.90;;;;;;5017451;28;20099;-83
2022/09/02 02:55:34;;;;;;;2.55;1.33;;;13.60;99.90;;;;;;5050190;28;20302;-83
2022/09/02 02:58:00;;;;;;;1.67;1.30;;;13.60;99.90;;;;;;5033676;28;20089;-82
2022/09/02 03:00:29;;;;;;;1.60;1.20;;;13.60;99.90;;;;;;5033628;28;20075;-82
2022/09/02 03:02:57;;;;;;;1.60;1.20;;;13.60;99.90;;;;;;5050730;28;20527;-82
2022/09/02 03:05:24;;;;;;;1.63;1.20;;;13.60;99.90;;;;;;5050227;28;20473;-82
2022/09/02 03:07:50;;;;;;;3.30;1.15;;;13.50;99.90;;;;;;5050524;28;20037;-82
2022/09/02 03:10:16;;;;;;;2.00;1.30;;;13.50;99.90;;;;;;5050205;28;20048;-82
2022/09/02 03:12:46;;;;;;;3.35;1.50;;;13.50;99.90;;;;;;5051299;28;20051;-83
2022/09/02 03:15:15;;;;;;;4.15;1.45;;;13.50;99.90;;;;;;5054199;28;20052;-82
2022/09/02 03:17:42;;;;;;;1.67;1.30;;;13.50;99.90;;;;;;5054264;28;20052;-82
2022/09/02 03:20:08;;;;;;;3.63;1.42;;;13.40;99.90;;;;;;5037201;28;20037;-82
2022/09/02 03:22:37;;;;;;;1.58;1.30;;;13.40;99.90;;;;;;5054178;28;20091;-82
2022/09/02 03:25:06;;;;;;;3.60;1.50;;;13.40;99.90;;;;;;5054078;28;20055;-82
2022/09/02 03:27:33;;;;;;;2.63;1.50;;;13.50;99.90;;;;;;5053825;28;20048;-82
2022/09/02 03:29:59;;;;;;;2.20;1.50;;;13.40;99.90;;;;;;5054014;28;20527;-82
2022/09/02 03:32:26;;;;;;;9.75;1.98;;;13.40;99.90;;;;;;5037282;28;20041;-82
2022/09/02 03:34:52;;;;;;;2.00;1.30;;;13.30;99.90;;;;;;5053883;28;20037;-83
2022/09/02 03:37:18;;;;;;;1.52;1.30;;;13.30;99.90;;;;;;5053405;28;20049;-82
2022/09/02 03:39:44;;;;;;;2.20;1.30;;;13.30;99.90;;;;;;5054176;28;20487;-82
2022/09/02 03:42:10;;;;;;;3.58;1.73;;;13.30;99.90;;;;;;5053448;28;20075;-82
2022/09/02 03:44:35;;;;;;;1.83;1.20;;;13.30;99.90;;;;;;5054020;28;20120;-82
2022/09/02 03:47:01;;;;;;;2.40;1.50;;;13.30;99.90;;;;;;5053393;28;20048;-82
2022/09/02 03:49:27;;;;;;;2.55;1.38;;;13.20;99.90;;;;;;5053637;28;20513;-82
2022/09/02 03:51:53;;;;;;;4.78;1.77;;;13.20;99.90;;;;;;5053536;28;20063;-82
2022/09/02 03:54:19;;;;;;;2.20;1.57;;;13.20;99.90;;;;;;5053659;28;20041;-82
2022/09/02 03:56:44;;;;;;;3.30;1.50;;;13.10;99.90;;;;;;5053258;28;20314;-82
2022/09/02 03:59:10;;;;;;;3.92;1.50;;;13.10;99.90;;;;;;5053191;28;20477;-82
2022/09/02 04:01:36;;;;;;;2.22;1.40;;;13.10;99.90;;;;;;5053371;28;20072;-82
2022/09/02 04:04:05;;;;;;;3.63;1.50;;;13.00;99.90;;;;;;5036615;28;20467;-82
2022/09/02 04:06:31;;;;;;;2.97;1.60;;;13.00;99.90;;;;;;5053336;28;20045;-82
2022/09/02 04:08:56;;;;;;;2.17;1.45;;;12.90;99.90;;;;;;5053112;28;20152;-82
2022/09/02 04:11:22;;;;;;;3.47;1.77;;;12.90;99.90;;;;;;5052921;28;20076;-82
2022/09/02 04:13:50;;;;;;;2.67;1.65;;;12.90;99.90;;;;;;5053238;28;20157;-82
2022/09/02 04:16:20;;;;;;;1.83;1.50;;;12.80;99.90;;;;;;5053004;28;20049;-82
2022/09/02 04:18:46;;;;;;;2.50;1.50;;;12.80;99.90;;;;;;5036355;28;20091;-82
2022/09/02 04:21:13;;;;;;;2.15;1.63;;;12.80;99.90;;;;;;5052696;28;20045;-82
2022/09/02 04:23:38;;;;;;;2.83;1.70;;;12.70;99.90;;;;;;5036512;28;20622;-82
2022/09/02 04:26:16;;;;;;;3.00;1.55;;;12.70;99.90;;;;;;5036353;28;20041;-82
2022/09/02 04:28:41;;;;;;;2.60;1.73;;;12.70;99.90;;;;;;5036251;28;20037;-82
2022/09/02 04:31:10;;;;;;;2.80;1.70;;;12.60;99.90;;;;;;5052620;28;20412;-82
2022/09/02 04:33:37;;;;;;;2.80;1.50;;;12.60;99.90;;;;;;5052715;28;20051;-82
2022/09/02 04:36:07;;;;;;;3.28;1.60;;;12.60;99.90;;;;;;5052450;28;20041;-82
2022/09/02 04:38:34;;;;;;;3.22;2.10;;;12.60;99.90;;;;;;5052687;28;20041;-82
2022/09/02 04:41:05;;;;;;;2.30;1.60;;;12.60;99.90;;;;;;5052585;28;20079;-82
2022/09/02 04:43:30;;;;;;;2.00;1.75;;;12.60;99.90;;;;;;5052377;28;20044;-82
2022/09/02 04:45:56;;;;;;;2.43;1.60;;;12.50;99.90;;;;;;5036007;28;20029;-82
2022/09/02 04:48:22;;;;;;;2.50;1.90;;;12.60;99.90;;;;;;5052374;28;20124;-82
2022/09/02 04:50:48;;;;;;;3.10;2.00;;;12.50;99.90;;;;;;5052686;28;20040;-82
2022/09/02 04:53:14;;;;;;;4.32;1.92;;;12.50;99.90;;;;;;5051996;28;20080;-82
2022/09/02 04:55:41;;;;;;;2.33;1.67;;;12.50;99.90;;;;;;5052076;28;20092;-82
2022/09/02 04:58:08;;;;;;;8.82;1.83;;;12.50;99.90;;;;;;5035528;28;20057;-82
2022/09/02 05:00:37;;;;;;;4.22;2.00;;;12.50;99.90;;;;;;5052274;28;20452;-82
2022/09/02 05:03:05;;;;;;;2.38;1.85;;;12.40;99.90;;;;;;5052239;28;20061;-82
2022/09/02 05:05:31;;;;;;;4.05;2.15;;;12.40;99.90;;;;;;5051959;28;20416;-82
2022/09/02 05:07:57;;;;;;;3.80;1.80;;;12.50;99.90;;;;;;5052138;28;20102;-82
2022/09/02 05:10:23;;;;;;;2.20;1.73;;;12.40;99.90;;;;;;5051957;28;20497;-82
2022/09/02 05:12:49;;;;;;;4.57;2.05;;;12.40;99.90;;;;;;5051977;28;20045;-82
2022/09/02 05:15:15;;;;;;;2.53;1.90;;;12.40;99.90;;;;;;5052074;28;20039;-82
2022/09/02 05:17:41;;;;;;;3.38;2.10;;;12.50;99.90;;;;;;5052053;28;20041;-82
2022/09/02 05:20:08;;;;;;;3.10;1.80;;;12.40;99.90;;;;;;5035465;28;20098;-82
2022/09/02 05:22:35;;;;;;;2.88;1.80;;;12.50;99.90;;;;;;5051831;28;20032;-82
2022/09/02 05:25:02;;;;;;;2.60;2.03;;;12.50;99.90;;;;;;5051885;28;20473;-82
2022/09/02 05:27:27;;;;;;;2.83;1.70;;;12.50;99.90;;;;;;5035109;28;20044;-82
2022/09/02 05:29:55;;;;;;;4.25;2.08;;;12.60;99.90;;;;;;5052175;28;20048;-82
2022/09/02 05:32:21;;;;;;;2.60;1.80;;;12.60;99.90;;;;;;5051675;28;20496;-82
2022/09/02 05:34:48;;;;;;;3.22;2.08;;;12.70;99.90;;;;;;5051583;28;20082;-83
2022/09/02 05:37:14;;;;;;;2.83;1.80;;;12.70;99.90;;;;;;5034429;28;20120;-82
2022/09/02 05:39:40;;;;;;;6.05;2.22;;;12.80;99.90;;;;;;5035219;28;20506;-82
2022/09/02 05:42:06;;;;;;;3.03;2.00;;;12.90;99.90;;;;;;5051409;28;20120;-82
2022/09/02 05:44:32;;;;;;;2.60;1.90;;;12.90;99.90;;;;;;5034841;28;20385;-82
2022/09/02 05:46:58;;;;;;;3.13;2.03;;;13.00;99.90;;;;;;5051654;28;20045;-83
2022/09/02 05:49:23;;;;;;;2.67;1.80;;;13.10;99.90;;;;;;5034633;28;20040;-83
2022/09/02 05:51:55;;;;;;;2.20;1.85;;;13.20;99.90;;;;;;5034892;28;20037;-82
2022/09/02 05:54:36;;;;;;;2.13;1.75;;;13.30;99.90;;;;;;5050815;28;20048;-81
2022/09/02 05:57:09;;;;;;;3.55;1.70;;;13.30;99.90;;;;;;5051257;28;20401;-82
2022/09/02 05:59:40;;;;;;;4.93;1.80;;;13.50;99.90;;;;;;5034738;28;20116;-83
2022/09/02 06:02:08;;;;;;;3.03;1.92;;;13.50;99.90;;;;;;5051144;28;20041;-83
2022/09/02 06:04:39;;;;;;;4.35;1.70;;;13.60;99.90;;;;;;5051188;28;20045;-83
2022/09/02 06:07:05;;;;;;;4.50;2.40;;;13.70;99.90;;;;;;5050993;28;20119;-82
2022/09/02 06:09:32;;;;;;;4.72;1.90;;;13.80;99.90;;;;;;5051069;28;20475;-82
2022/09/02 06:11:57;;;;;;;2.50;1.80;;;13.90;99.90;;;;;;5051339;28;20493;-83
2022/09/02 06:14:24;;;;;;;3.90;2.10;;;14.00;99.90;;;;;;5034042;28;20049;-82
2022/09/02 06:16:52;;;;;;;4.07;2.45;;;14.10;99.90;;;;;;5050807;28;20091;-83
2022/09/02 06:19:18;;;;;;;5.45;1.77;;;14.10;99.90;;;;;;5034356;28;20045;-82
2022/09/02 06:21:44;;;;;;;6.20;1.95;;;14.30;99.90;;;;;;5050620;28;20049;-83
2022/09/02 06:24:10;;;;;;;3.55;1.85;;;14.30;99.90;;;;;;5050738;28;20120;-83
2022/09/02 06:26:38;;;;;;;6.32;2.35;;;14.50;99.90;;;;;;5050678;28;20048;-83
2022/09/02 06:29:05;;;;;;;5.70;1.90;;;14.60;99.90;;;;;;5050712;28;20051;-83
2022/09/02 06:31:30;;;;;;;3.17;2.00;;;14.80;99.90;;;;;;5050650;28;20045;-83
2022/09/02 06:33:57;;;;;;;3.88;2.20;;;14.90;99.90;;;;;;5050640;28;20695;-83
2022/09/02 06:36:25;;;;;;;7.40;2.10;;;15.00;99.90;;;;;;5050144;28;20048;-83
2022/09/02 06:38:52;;;;;;;6.07;2.03;;;15.10;99.90;;;;;;5050499;28;20115;-83
2022/09/02 06:41:26;;;;;;;4.15;2.13;;;15.30;99.90;;;;;;5050038;28;20040;-83
2022/09/02 06:43:55;;;;;;;3.58;1.80;;;15.50;99.90;;;;;;5049633;28;20056;-83
2022/09/02 06:46:26;;;;;;;4.95;1.92;;;15.60;99.90;;;;;;5049912;28;20041;-83
2022/09/02 06:48:52;;;;;;;4.47;1.92;;;15.80;99.90;;;;;;5052834;28;20037;-83
2022/09/02 06:51:26;;;;;;;5.45;1.90;;;15.90;99.90;;;;;;5037135;28;20086;-83
2022/09/02 06:53:52;;;;;;;2.95;1.75;;;16.10;99.90;;;;;;5053928;28;20049;-83
2022/09/02 06:56:18;;;;;;;3.33;1.83;;;16.70;99.90;;;;;;5053056;28;20049;-83
2022/09/02 06:58:44;;;;;;;4.22;1.48;;;17.20;99.90;;;;;;5053040;28;20109;-83
2022/09/02 07:01:16;;;;;;;2.75;1.40;;;17.70;99.90;;;;;;5036316;28;20040;-83
2022/09/02 07:18:48;;;;;;;1.60;1.45;;;18.80;99.90;;;;;;5006423;28;20890;-79
2022/09/02 07:21:16;;;;;;;1.58;1.13;;;19.60;99.90;;;;;;5075073;28;20100;-79
2022/09/02 07:23:41;;;;;;;3.13;1.20;;;19.80;99.90;;;;;;5057748;28;20486;-79
2022/09/02 07:26:13;;;;;;;1.90;1.50;;;20.10;99.90;;;;;;5074867;28;20046;-79
2022/09/02 07:28:42;;;;;;;3.05;1.20;;;20.30;99.90;;;;;;5074660;28;20103;-79
2022/09/02 07:31:09;;;;;;;3.00;2.03;;;20.50;99.90;;;;;;5058125;28;20060;-78
2022/09/02 07:33:35;;;;;;;3.33;1.20;;;20.80;99.30;;;;;;5057516;28;20095;-78
2022/09/02 07:36:05;;;;;;;2.75;1.35;;;20.90;99.90;;;;;;5041260;28;20130;-78
2022/09/02 07:38:33;;;;;;;3.17;1.10;;;21.00;99.80;;;;;;5058332;28;20034;-79
2022/09/02 07:40:59;;;;;;;5.60;1.52;;;21.30;99.40;;;;;;5074622;28;20049;-79
2022/09/02 07:43:27;;;;;;;4.68;1.25;;;21.70;99.20;;;;;;5074004;28;20065;-79
2022/09/02 07:45:54;;;;;;;2.83;1.17;;;21.80;98.00;;;;;;5074324;28;20090;-79
2022/09/02 07:48:22;;;;;;;3.97;1.23;;;22.00;98.10;;;;;;5057623;28;20092;-79
2022/09/02 07:50:48;;;;;;;4.97;1.02;;;22.20;98.50;;;;;;5074579;28;20491;-79
2022/09/02 07:53:15;;;;;;;;;;;22.60;98.00;;;;;;5074208;28;20042;-78
2022/09/02 07:55:41;;;;;;;;;;;22.90;96.50;;;;;;5074771;28;19918;-79
2022/09/02 07:58:08;;;;;;;3.22;0.90;;;23.00;95.60;;;;;;5055160;28;19922;-79
2022/09/02 08:00:34;;;;;;;1.20;0.77;;;23.30;96.90;;;;;;5037746;28;20139;-78
2022/09/02 08:03:00;;;;;;;2.17;1.23;;;23.20;95.20;;;;;;5053821;28;20039;-79
2022/09/02 08:05:26;;;;;;;;;;;23.20;95.70;;;;;;5054362;28;20058;-80
2022/09/02 08:07:52;;;;;;;3.17;0.70;;;23.20;95.00;;;;;;5053393;28;19922;-79
2022/09/02 08:10:19;;;;;;;;;;;23.10;94.80;;;;;;5054397;28;20058;-80
2022/09/02 08:12:46;;;;;;;2.65;0.65;;;23.30;94.90;;;;;;5053585;28;20001;-78
2022/09/02 08:15:13;;;;;;;3.90;0.80;;;23.30;95.10;;;;;;5037284;28;20050;-79
2022/09/02 08:17:39;;;;;;;3.85;1.15;;;23.30;95.10;;;;;;5065073;28;20060;-79
2022/09/02 08:20:07;;;;;;;1.77;0.98;;;23.50;95.00;;;;;;5053949;28;20049;-79
2022/09/02 08:22:34;;;;;;;3.05;0.98;;;23.50;94.70;;;;;;5053955;28;20045;-79
2022/09/02 08:25:01;;;;;;;2.47;0.80;;;23.50;94.60;;;;;;5053768;28;20040;-79
2022/09/02 08:27:26;;;;;;;2.58;0.88;;;23.70;94.70;;;;;;5053882;28;20094;-79
2022/09/02 08:29:52;;;;;;;;;;;23.70;94.20;;;;;;5054069;28;20424;-79
2022/09/02 08:32:18;;;;;;;3.60;1.00;;;23.90;94.30;;;;;;5070789;28;19920;-79
2022/09/02 08:34:44;;;;;;;1.67;0.80;;;23.90;94.10;;;;;;5054109;28;20155;-79
2022/09/02 08:37:10;;;;;;;;;;;23.70;94.00;;;;;;5054239;28;20041;-79
2022/09/02 08:39:37;;;;;;;5.45;1.38;;;24.00;94.10;;;;;;5053489;28;19923;-79
2022/09/02 08:42:17;;;;;;;3.10;1.10;;;24.10;93.70;;;;;;5053497;28;20051;-79
2022/09/02 08:44:44;;;;;;;2.70;0.98;;;24.40;94.10;;;;;;5053628;28;20043;-78
2022/09/02 08:47:14;;;;;;;5.57;0.93;;;24.50;93.90;;;;;;5053711;28;20045;-78
2022/09/02 08:49:49;;;;;;;2.78;1.20;;;25.00;93.80;;;;;;5036804;28;20043;-78
2022/09/02 08:52:41;;;;;;;2.55;1.20;;;25.10;93.00;;;;;;5037049;28;20044;-79
2022/09/02 08:55:13;;;;;;;1.85;1.05;;;25.00;93.40;;;;;;5036342;28;20060;-79
2022/09/02 08:57:41;;;;;;;2.42;1.10;;;25.00;93.00;;;;;;5053133;28;20037;-79
2022/09/02 09:00:08;;;;;;;3.15;1.15;;;25.30;93.50;;;;;;5053316;28;20045;-79
2022/09/02 09:02:56;;;;;;;1.20;0.90;;;25.50;93.20;;;;;;5020689;28;20477;-80
2022/09/02 09:05:56;;;;;;;2.90;1.00;;;25.80;92.80;;;;;;5053541;28;20061;-80
2022/09/02 09:08:40;;;;;;;2.08;0.88;;;25.80;92.10;;;;;;5022581;28;20049;-80
2022/09/02 09:11:33;;;;;;;2.67;0.80;;;25.80;92.60;;;;;;5053056;28;20092;-80
2022/09/02 09:14:30;;;;;;;3.53;1.00;;;25.90;92.60;;;;;;5053177;28;20112;-80
2022/09/02 09:17:07;;;;;;;1.48;0.88;;;26.40;92.30;;;;;;5052733;28;20132;-80
2022/09/02 09:19:38;;;;;;;2.55;0.93;;;26.80;92.30;;;;;;5086476;28;20080;-80
2022/09/02 09:22:04;;;;;;;1.80;0.82;;;26.60;91.80;;;;;;5052763;28;20041;-79
2022/09/02 09:24:39;;;;;;;2.67;0.98;;;26.60;91.50;;;;;;5052835;28;20037;-80
2022/09/02 09:27:16;;;;;;;2.75;1.00;;;26.70;91.90;;;;;;5052495;28;20406;-80
2022/09/02 09:29:43;;;;;;;2.00;0.75;;;26.80;91.50;;;;;;5035576;28;20037;-79
2022/09/02 09:32:22;;;;;;;3.83;0.93;;;26.70;91.20;;;;;;5052825;28;20032;-80
2022/09/02 09:34:51;;;;;;;2.35;0.70;;;27.00;91.60;;;;;;5053114;28;20041;-80
2022/09/02 09:37:40;;;;;;;3.10;0.80;;;27.30;91.00;;;;;;5052631;28;20098;-80
2022/09/02 09:40:19;;;;;;;2.78;0.80;;;27.20;90.90;;;;;;5036367;28;20103;-81
2022/09/02 09:42:57;;;;;;;1.30;0.55;;;27.30;90.90;;;;;;5052296;28;20066;-80
2022/09/02 09:45:36;;;;;;;2.00;0.68;;;27.50;90.90;;;;;;5052391;28;20037;-80
2022/09/02 09:48:22;;;;;;;2.92;0.77;;;27.90;90.50;;;;;;5052625;28;20040;-80
2022/09/02 09:50:54;;;;;;;2.30;0.70;;;27.90;90.70;;;;;;5035911;28;20069;-80
2022/09/02 09:53:22;;;;;;;2.95;0.70;;;27.80;90.10;;;;;;5036120;28;20502;-81
2022/09/02 09:56:06;;;;;;;3.83;0.60;;;28.40;90.80;;;;;;5052364;28;20041;-81
2022/09/02 09:58:41;;;;;;;5.20;0.98;;;28.60;89.10;;;;;;5052094;28;20037;-81
2022/09/02 10:01:25;;;;;;;1.10;0.50;;;28.70;89.40;;;;;;5051962;28;20037;-81
2022/09/02 10:04:11;;;;;;;3.33;0.77;;;28.90;88.10;;;;;;5037758;28;20036;-81
2022/09/02 10:06:42;;;;;;;5.25;0.73;;;28.90;89.00;;;;;;5035310;28;20052;-81
2022/09/02 10:09:13;;;;;;;2.17;0.75;;;29.30;89.80;;;;;;5052020;28;20080;-81
2022/09/02 10:11:57;;;;;;;1.92;0.60;;;29.50;88.00;;;;;;5051844;28;20123;-81
2022/09/02 10:14:24;;;;;;;4.35;0.70;;;29.40;87.30;;;;;;5051797;28;20076;-81
2022/09/02 10:17:16;;;;;;;3.45;0.70;;;29.30;86.80;;;;;;5051767;28;20060;-81
2022/09/02 10:19:45;;;;;;;2.95;0.80;;;29.50;86.90;;;;;;5051689;28;20052;-81
2022/09/02 10:22:48;;;;;;;3.08;0.80;;;29.30;86.50;;;;;;5051632;28;20044;-81
2022/09/02 10:25:46;;;;;;;1.92;0.70;;;29.40;86.80;;;;;;5051332;28;20052;-81
2022/09/02 10:28:39;;;;;;;3.28;0.60;;;29.20;87.60;;;;;;5084971;28;20049;-81
2022/09/02 10:31:45;;;;;;;3.22;0.80;;;29.50;88.50;;;;;;5051430;28;20132;-81
2022/09/02 10:34:26;;;;;;;3.15;0.70;;;29.30;86.20;;;;;;5012689;28;20084;-81
2022/09/02 10:37:22;;;;;;;4.97;0.80;;;29.30;86.70;;;;;;5051960;28;20040;-81
2022/09/02 10:40:18;;;;;;;7.10;0.85;;;29.50;86.30;;;;;;5028346;28;20130;-81
2022/09/02 10:42:49;;;;;;;7.07;0.75;;;29.70;86.40;;;;;;5034530;28;20047;-81
2022/09/02 10:45:29;;;;;;;5.63;0.63;;;29.90;86.80;;;;;;5051566;28;20049;-81
2022/09/02 10:48:07;;;;;;;1.42;0.52;;;30.10;86.70;;;;;;5051357;28;20064;-81
2022/09/02 10:50:42;;;;;;;1.50;0.75;;;30.30;85.60;;;;;;5051295;28;20045;-81
2022/09/02 10:53:29;;;;;;;3.15;0.60;;;30.60;85.50;;;;;;5051507;28;20516;-81
2022/09/02 10:56:09;;;;;;;2.08;0.60;;;30.40;85.10;;;;;;5051341;28;20040;-81
2022/09/02 10:59:00;;;;;;;3.58;0.55;;;30.70;84.80;;;;;;5051232;28;20037;-81
2022/09/02 11:01:32;;;;;;;3.92;0.70;;;30.50;83.80;;;;;;5051492;28;20032;-81
2022/09/02 11:04:03;;;;;;;4.13;0.52;;;30.80;85.00;;;;;;5051110;28;20044;-81
2022/09/02 11:06:34;;;;;;;2.28;0.77;;;30.70;83.70;;;;;;5051291;28;20110;-81
2022/09/02 11:09:06;;;;;;;2.38;0.75;;;30.60;84.20;;;;;;5034498;28;20041;-81
2022/09/02 11:11:59;;;;;;;3.00;0.90;;;30.60;83.60;;;;;;5051330;28;20041;-81
2022/09/02 11:14:40;;;;;;;1.88;0.73;;;30.90;84.20;;;;;;5084623;28;20049;-81
2022/09/02 11:17:20;;;;;;;3.60;0.82;;;30.40;82.80;;;;;;5050792;28;20057;-81
2022/09/02 11:19:51;;;;;;;3.40;0.60;;;30.40;82.60;;;;;;5051192;28;20048;-81
2022/09/02 11:22:44;;;;;;;3.55;0.70;;;30.80;83.50;;;;;;5051107;28;20083;-81
2022/09/02 11:25:39;;;;;;;2.65;0.50;;;30.90;82.00;;;;;;5050908;28;20080;-82
2022/09/02 11:28:19;;;;;;;3.90;0.77;;;31.10;81.80;;;;;;5011505;28;20053;-81
2022/09/02 11:30:52;;;;;;;3.60;0.70;;;30.80;82.70;;;;;;5051027;28;20041;-81
2022/09/02 11:33:25;;;;;;;2.00;0.80;;;30.70;81.20;;;;;;5051138;28;20559;-81
2022/09/02 11:35:51;;;;;;;1.17;0.60;;;30.60;82.50;;;;;;5084710;28;20049;-78
2022/09/02 11:38:41;;;;;;;1.42;0.50;;;30.70;82.50;;;;;;5050894;28;20041;-79
2022/09/02 11:41:25;;;;;;;3.72;0.85;;;31.10;83.10;;;;;;5050559;28;20037;-78
2022/09/02 11:44:33;;;;;;;1.10;0.50;;;31.40;82.10;;;;;;5034333;28;20509;-81
2022/09/02 11:47:01;;;;;;;;;;;31.40;82.30;;;;;;5034679;28;20067;-81
2022/09/02 11:49:53;;;;;;;3.70;0.60;;;31.40;81.70;;;;;;5050971;28;19920;-82
2022/09/02 11:52:45;;;;;;;1.88;0.73;;;31.40;82.40;;;;;;5049471;28;20110;-82
2022/09/02 11:55:24;;;;;;;5.20;0.60;;;31.80;81.60;;;;;;5051588;28;20138;-82
2022/09/02 11:57:56;;;;;;;5.10;0.88;;;31.70;81.40;;;;;;5037748;28;20105;-82
2022/09/02 12:00:35;;;;;;;4.10;0.80;;;31.50;81.00;;;;;;5054367;28;20040;-82
2022/09/02 12:03:04;;;;;;;3.90;0.65;;;31.70;80.80;;;;;;5037490;28;20045;-82
2022/09/02 12:05:30;;;;;;;2.90;0.57;;;31.70;80.60;;;;;;5054182;28;20049;-82
2022/09/02 12:08:05;;;;;;;4.80;0.70;;;31.30;81.00;;;;;;5054335;28;20512;-81
2022/09/02 12:10:44;;;;;;;3.17;0.93;;;31.50;81.50;;;;;;5054585;28;20508;-82
2022/09/02 12:13:48;;;;;;;3.03;0.70;;;31.80;80.10;;;;;;5054076;28;20045;-80
2022/09/02 12:16:22;;;;;;;2.78;0.65;;;32.10;79.50;;;;;;5054108;28;20033;-82
2022/09/02 12:18:54;;;;;;;3.25;0.63;;;32.20;79.90;;;;;;5054154;28;20053;-80
2022/09/02 12:21:27;;;;;;;1.85;0.55;;;31.80;80.40;;;;;;5054336;28;20087;-81
2022/09/02 12:23:56;;;;;;;2.75;0.50;;;31.70;79.20;;;;;;5053829;28;20120;-81
2022/09/02 12:26:22;;;;;;;3.90;0.70;;;31.40;79.10;;;;;;5054133;28;20040;-81
2022/09/02 12:28:50;;;;;;;2.42;0.40;;;31.70;78.70;;;;;;5037186;28;20040;-82
2022/09/02 12:31:41;;;;;;;2.17;0.57;;;31.50;78.90;;;;;;5053856;28;20044;-82
2022/09/02 12:34:22;;;;;;;2.78;0.55;;;31.60;78.60;;;;;;5054270;28;20490;-82
2022/09/02 12:36:53;;;;;;;1.98;0.40;;;31.90;78.50;;;;;;5054027;28;20284;-82
2022/09/02 12:39:26;;;;;;;2.75;0.40;;;32.60;79.10;;;;;;5053919;28;20036;-83
2022/09/02 12:42:03;;;;;;;2.65;0.60;;;32.90;77.60;;;;;;5037432;28;20390;-81
2022/09/02 12:44:55;;;;;;;1.02;0.43;;;32.50;77.30;;;;;;5053675;28;20051;-82
2022/09/02 12:47:49;;;;;;;4.28;0.50;;;32.10;78.50;;;;;;5070227;28;20041;-81
2022/09/02 12:50:49;;;;;;;1.50;0.60;;;32.60;78.40;;;;;;5053689;28;20068;-81
2022/09/02 12:53:37;;;;;;;3.03;0.50;;;32.50;77.90;;;;;;5087265;28;20041;-82
2022/09/02 12:56:15;;;;;;;3.35;0.63;;;32.50;77.40;;;;;;5037044;28;20481;-82
2022/09/02 12:58:52;;;;;;;2.67;0.45;;;32.80;77.40;;;;;;5053201;28;20095;-82
2022/09/02 13:02:06;;;;;;;2.08;0.45;;;32.60;77.10;;;;;;5053315;28;20048;-82
2022/09/02 13:04:32;;;;;;;1.83;0.50;;;32.90;76.70;;;;;;5023474;28;20041;-82
2022/09/02 13:07:25;;;;;;;3.63;0.40;;;33.40;77.20;;;;;;5036400;28;20052;-81
2022/09/02 13:10:06;;;;;;;1.40;0.60;;;33.60;76.30;;;;;;5036481;28;20037;-82
2022/09/02 13:12:43;;;;;;;2.03;0.68;;;33.30;76.90;;;;;;5053694;28;20469;-82
2022/09/02 13:15:22;;;;;;;1.48;0.52;;;33.30;75.70;;;;;;5052837;28;20120;-81
2022/09/02 13:18:07;;;;;;;1.25;0.40;;;33.30;75.90;;;;;;5052562;28;20107;-81
2022/09/02 13:21:21;;;;;;;1.88;0.50;;;33.00;76.10;;;;;;5036366;28;20048;-82
2022/09/02 13:24:05;;;;;;;2.90;0.50;;;33.20;76.00;;;;;;5030816;28;20559;-82
2022/09/02 13:26:41;;;;;;;4.30;0.52;;;33.00;76.20;;;;;;5052980;28;20045;-82
2022/09/02 13:29:19;;;;;;;1.60;0.40;;;33.10;75.60;;;;;;5052690;28;20059;-82